AirNav   Air Wisconsin Up To $57,000 Bonus
 
 1545 users online  

0NE3 Syracuse Hospital Heliport
Syracuse, Nebraska, USA

GOING TO SYRACUSE?


FAA INFORMATION EFFECTIVE 05 DECEMBER 2019

Location

FAA Identifier: 0NE3
Lat/Long: 40-40-02.0050N 096-11-11.0310W
40-40.033417N 096-11.183850W
40.6672236,-96.1863975
(estimated)
Elevation: 1120 ft. / 341 m (estimated)
Variation: 06E (1985)
Time zone: UTC -6 (UTC -5 during Daylight Saving Time)
Zip code: 68446

Heliport Operations

Heliport use: Private use, MEDICAL USE.
Activation date: 06/1991
Control tower: no
ARTCC: MINNEAPOLIS CENTER
FSS: COLUMBUS FLIGHT SERVICE STATION
Attendance: MON-FRI 0800-1600
Wind indicator: yes
Segmented circle: no
Lights: FOR PERIMETER LGTS CALL 402-269-2011.

Heliport Communications

WX AWOS-3PT at AFK (15 nm E): 128.325 (402-873-7375)

Nearby radio navigation aids

VOR radial/distance  VOR name  Freq  Var
PWEr357/28.0PAWNEE CITY VORTAC112.4005E
LNKr112/29.6LINCOLN VORTAC116.1009E
BIEr043/(34.0)BEATRICE VOR110.6007E
OVRr206/36.3OMAHA VORTAC116.3008E

 
NDB name  Hdg/Dist  Freq  Var  ID
NEBRASKA CITY279/15.334705EAFK .- ..-. -.-
PLATTSMOUTH212/20.732905EPMV .--. -- ...-
SHENANDOAH257/35.841105ESDA ... -.. .-
WAHOO145/39.140006EAHQ .- .... --.-

Heliport Services

Runway Information

Helipad H1

Dimensions: 40 x 40 ft. / 12 x 12 m
Surface: concrete
Runway edge lights: PERI
Latitude: 40-40.033417N
Longitude: 096-11.183850W
Elevation: 1120.0 ft.
Traffic pattern: leftleft

Heliport Ownership and Management from official FAA records

Ownership: Privately-owned
Owner: COMMUNITY MEMORIAL HOSPITAL
1579 MIDLAND ST
SYRACUSE, NE 68446
Phone 402-269-2011
Manager: MICHAEL HARVEY
1579 MIDLAND ST
SYRACUSE, NE 68446
Phone 402-269-2011

Additional Remarks

OWNER DESIRES HELIPAD NOT BE CHARTED.
FOR CD CTC OMAHA APCH AT 402-682-4395.

Instrument Procedures

There are no published instrument procedures at 0NE3.

Some nearby airports with instrument procedures:

KAFK - Nebraska City Municipal Airport (15 nm E)
0G3 - Tecumseh Municipal Airport (16 nm S)
KPMV - Plattsmouth Municipal Airport (21 nm NE)
K01 - Farington Field Airport (25 nm SE)
KLNK - Lincoln Airport (28 nm NW)
 
Loc | Ops | Rwys | IFR | FBO | Links
Com | Nav | Svcs | Stats | Notes

Silverhawk Aviation, Inc.
AirBoss

 
Area around 0NE3 (Syracuse Hospital Heliport)
 
Road maps at: MapQuest Bing Google
 
Aerial photo
No photo
 
Sectional chart

 
Airport distance calculator
Flying to Syracuse Hospital Heliport? Find the distance to fly.

From to 0NE3

Sunrise and sunset
Times for 05-Dec-2019
 Local
(UTC-6)
 Zulu
(UTC)
Morning civil twilight07:0413:04
Sunrise07:3413:34
Sunset16:5722:57
Evening civil twilight17:2723:27

Current date and time
Zulu (UTC)  05-Dec-2019 18:48:42
Local (UTC-6)  05-Dec-2019 12:48:42
 
METAR
KAFK 
15nm E 
051835Z AUTO 18004KT 10SM CLR 13/03 A2987 RMK AO2 T01280026
KPMV 
21nm NE 
051835Z AUTO 20006KT 10SM CLR 13/02 A2988 RMK AO2 T01250024
KLNK 
28nm W 
051754Z 18003KT 10SM CLR 10/02 A2990 RMK AO2 SLP131 T01000022 10100 21056 58006
KOFF 
30nm NE 
051756Z 00000KT 10SM CLR 09/01 A2990 RMK AO2A SLP133 RVRNO $
TAF
KLNK 
28nm W 
051725Z 0518/0618 VRB04KT P6SM FEW250 FM060000 36012KT P6SM BKN180 FM060400 36016G25KT P6SM OVC025 FM061000 36013KT P6SM OVC020 FM061500 01008KT P6SM BKN035
KOFF 
30nm NE 
051800Z 0518/0624 VRB06KT 9999 SKC QNH2989INS BECMG 0521/0522 33009KT 9999 FEW200 QNH2994INS BECMG 0603/0604 36015G25KT 9999 FEW020 BKN200 QNH3015INS BECMG 0612/0613 36009KT 9999 BKN020 620209 QNH3039INS TX10/0522Z TNM02/0612Z
NOTAMs
Click for the latest NOTAMs
NOTAMs are issued by the DoD/FAA and will open in a separate window not controlled by AirNav.

 

 
 

Would you like to see your business listed on this page?

 If your business provides an interesting product or service to pilots, flight crews, aircraft, or users of the Syracuse Hospital Heliport, you should consider listing it here.  To start the listing process, click on the button below
 
Add a business
 

Other Pages about Syracuse Hospital Heliport

Update a link
 
Copyright © AirNav, LLC. All rights reserved. Privacy Policy  Contact